Time;durP1;ratioP1;P1;durP2;ratioP2;P2;SDS_P1;SDS_P2;PMS_P1;PMS_P2;Temp;Humidity;BMP_temperature;BMP_pressure;BME280_temperature;BME280_humidity;BME280_pressure;Samples;Min_cycle;Max_cycle;Signal;HPM_P1;HPM_P2
2021/05/27 00:00:14;;;;;;;6.40;4.15;;;384.70;2329.60;;;;;;5094114;28;20114;-78
2021/05/27 00:02:41;;;;;;;8.23;4.65;;;384.60;2329.60;;;;;;5076225;28;20045;-79
2021/05/27 00:05:08;;;;;;;8.02;5.07;;;384.60;2304.00;;;;;;5077100;28;20064;-79
2021/05/27 00:07:34;;;;;;;9.75;5.82;;;384.60;2304.00;;;;;;5071165;28;20064;-78
2021/05/27 00:10:00;;;;;;;8.68;5.03;;;384.70;2304.00;;;;;;5086192;28;20067;-79
2021/05/27 00:12:25;;;;;;;13.07;5.10;;;384.70;2304.00;;;;;;5074772;28;20036;-80
2021/05/27 00:14:51;;;;;;;6.53;4.40;;;384.70;2278.40;;;;;;5072629;28;20031;-80
2021/05/27 00:17:18;;;;;;;7.20;4.35;;;384.80;2278.40;;;;;;5084995;28;20028;-80
2021/05/27 00:19:45;;;;;;;7.72;5.25;;;384.80;2252.80;;;;;;5074640;28;20024;-79
2021/05/27 00:22:11;;;;;;;7.57;4.57;;;384.80;2278.40;;;;;;5071975;28;20028;-80
2021/05/27 00:24:37;;;;;;;7.35;4.45;;;384.80;2278.40;;;;;;5089966;28;20035;-80
2021/05/27 00:27:04;;;;;;;6.97;4.78;;;384.80;2278.40;;;;;;5087703;28;20020;-80
2021/05/27 00:29:30;;;;;;;9.40;4.97;;;384.80;2278.40;;;;;;5089452;28;20372;-80
2021/05/27 00:31:56;;;;;;;9.52;4.47;;;384.70;2304.00;;;;;;5078631;28;20028;-80
2021/05/27 00:34:22;;;;;;;10.55;5.18;;;384.80;2304.00;;;;;;5071416;28;20033;-80
2021/05/27 00:36:48;;;;;;;10.23;4.75;;;384.80;2278.40;;;;;;5087568;28;20040;-80
2021/05/27 00:39:14;;;;;;;8.50;4.68;;;384.70;2304.00;;;;;;5083683;28;20479;-80
2021/05/27 00:41:39;;;;;;;9.15;5.07;;;384.70;2304.00;;;;;;5081376;28;20483;-80
2021/05/27 00:44:25;;;;;;;7.65;4.53;;;384.70;2304.00;;;;;;5076646;28;20032;-80
2021/05/27 00:46:52;;;;;;;8.60;4.78;;;384.70;2304.00;;;;;;5076315;28;20123;-79
2021/05/27 00:49:18;;;;;;;8.32;4.85;;;384.60;2329.60;;;;;;5075908;28;20013;-80
2021/05/27 00:51:46;;;;;;;7.18;4.47;;;384.50;2329.60;;;;;;5069866;28;20105;-79
2021/05/27 00:54:13;;;;;;;7.88;4.53;;;384.50;2329.60;;;;;;5071547;28;20020;-80
2021/05/27 00:56:40;;;;;;;10.82;4.75;;;384.30;2329.60;;;;;;5069914;28;20032;-79
2021/05/27 00:59:08;;;;;;;13.13;4.07;;;384.40;2329.60;;;;;;5071975;28;20424;-79
2021/05/27 01:01:34;;;;;;;8.15;4.05;;;384.40;2329.60;;;;;;5071302;28;20020;-80
2021/05/27 01:04:00;;;;;;;7.35;4.10;;;384.50;2329.60;;;;;;5075642;28;20077;-79
2021/05/27 01:06:26;;;;;;;6.82;4.18;;;384.40;2304.00;;;;;;5071882;28;20040;-79
2021/05/27 01:08:54;;;;;;;10.27;4.05;;;384.60;2227.20;;;;;;5069997;28;20024;-79
2021/05/27 01:11:19;;;;;;;5.18;4.25;;;384.60;2201.60;;;;;;5068599;28;20078;-79
2021/05/27 01:13:45;;;;;;;7.15;4.30;;;384.70;2201.60;;;;;;5069392;28;20016;-79
2021/05/27 01:16:16;;;;;;;8.00;4.45;;;384.80;2227.20;;;;;;5076198;28;20032;-79
2021/05/27 01:18:41;;;;;;;13.52;4.75;;;384.80;2252.80;;;;;;5069414;28;20055;-79
2021/05/27 01:21:07;;;;;;;7.40;4.07;;;384.70;2304.00;;;;;;5070097;28;20460;-80
2021/05/27 01:23:34;;;;;;;6.25;4.07;;;384.60;2304.00;;;;;;5069552;28;20024;-79
2021/05/27 01:26:00;;;;;;;6.88;4.78;;;384.60;2329.60;;;;;;5069744;28;20040;-80
2021/05/27 01:28:29;;;;;;;5.63;3.83;;;384.40;2329.60;;;;;;5069665;28;20035;-79
2021/05/27 01:30:56;;;;;;;6.72;4.03;;;384.60;2304.00;;;;;;5071558;28;20024;-78
2021/05/27 01:33:21;;;;;;;6.38;4.47;;;384.60;2304.00;;;;;;5071609;28;20387;-78
2021/05/27 01:35:48;;;;;;;7.38;4.47;;;384.60;2304.00;;;;;;5078497;28;20046;-78
2021/05/27 01:38:18;;;;;;;8.50;4.65;;;384.60;2304.00;;;;;;5071009;28;20033;-78
2021/05/27 01:40:45;;;;;;;7.65;4.40;;;384.50;2329.60;;;;;;5069521;28;20112;-78
2021/05/27 01:43:11;;;;;;;5.97;4.57;;;384.50;2329.60;;;;;;5070097;28;20131;-78
2021/05/27 01:45:38;;;;;;;6.85;4.22;;;384.50;2329.60;;;;;;5070871;28;20032;-79
2021/05/27 01:48:04;;;;;;;7.25;4.30;;;384.40;2329.60;;;;;;5070797;28;20040;-78
2021/05/27 01:50:30;;;;;;;8.27;5.00;;;384.40;2329.60;;;;;;5069341;28;20028;-78
2021/05/27 01:52:58;;;;;;;6.57;3.90;;;384.50;2304.00;;;;;;5069906;28;20029;-79
2021/05/27 01:55:24;;;;;;;6.30;3.92;;;384.50;2329.60;;;;;;5070687;28;20023;-78
2021/05/27 01:57:50;;;;;;;8.40;5.95;;;384.40;2329.60;;;;;;5069768;28;20024;-79
2021/05/27 02:00:17;;;;;;;11.70;5.38;;;384.40;2329.60;;;;;;5069901;28;20033;-78
2021/05/27 02:02:43;;;;;;;10.82;6.15;;;384.30;2329.60;;;;;;5069200;28;20115;-78
2021/05/27 02:05:10;;;;;;;8.25;4.65;;;384.30;2304.00;;;;;;5069684;28;20558;-79
2021/05/27 02:07:35;;;;;;;7.43;4.60;;;384.40;2304.00;;;;;;5070186;28;20047;-78
2021/05/27 02:10:02;;;;;;;6.78;4.38;;;384.40;2278.40;;;;;;5070602;28;20032;-78
2021/05/27 02:12:28;;;;;;;7.85;4.57;;;384.40;2278.40;;;;;;5069220;28;20017;-79
2021/05/27 02:14:54;;;;;;;6.65;4.78;;;384.40;2278.40;;;;;;5069726;28;20024;-79
2021/05/27 02:17:19;;;;;;;6.90;4.82;;;384.40;2278.40;;;;;;5068781;28;20060;-79
2021/05/27 02:19:45;;;;;;;8.55;5.20;;;384.40;2278.40;;;;;;5086401;28;20107;-79
2021/05/27 02:22:11;;;;;;;5.93;3.78;;;384.50;2278.40;;;;;;5072144;28;20063;-78
2021/05/27 02:24:36;;;;;;;9.40;4.05;;;384.60;2252.80;;;;;;5072827;28;20029;-78
2021/05/27 02:27:02;;;;;;;8.32;4.80;;;384.60;2227.20;;;;;;5074797;28;20056;-79
2021/05/27 02:29:28;;;;;;;10.57;4.28;;;384.70;2227.20;;;;;;5072184;28;20077;-79
2021/05/27 02:31:54;;;;;;;7.30;3.95;;;384.80;2176.00;;;;;;5069661;28;20023;-80
2021/05/27 02:34:19;;;;;;;6.70;3.50;;;384.90;2124.80;;;;;;5068000;28;20500;-78
2021/05/27 02:36:45;;;;;;;7.32;4.10;;;409.60;2150.40;;;;;;5073043;28;20036;-79
2021/05/27 02:39:11;;;;;;;5.43;3.58;;;409.60;2150.40;;;;;;5072623;28;20032;-78
2021/05/27 02:41:37;;;;;;;6.53;4.15;;;409.60;2150.40;;;;;;5073427;28;20483;-78
2021/05/27 02:44:03;;;;;;;8.63;4.22;;;384.90;2176.00;;;;;;5071815;28;20034;-78
2021/05/27 02:46:28;;;;;;;7.60;3.88;;;384.80;2201.60;;;;;;5074165;28;20016;-79
2021/05/27 02:48:55;;;;;;;9.63;4.95;;;384.70;2201.60;;;;;;5071841;28;20124;-78
2021/05/27 02:51:21;;;;;;;5.55;3.97;;;384.60;2252.80;;;;;;5073012;28;20440;-79
2021/05/27 02:53:46;;;;;;;6.07;4.28;;;384.60;2227.20;;;;;;5072086;28;20020;-79
2021/05/27 02:56:12;;;;;;;6.80;3.40;;;384.60;2201.60;;;;;;5072213;28;20375;-79
2021/05/27 02:58:39;;;;;;;5.63;3.88;;;384.60;2201.60;;;;;;5074329;28;20032;-80
2021/05/27 03:01:06;;;;;;;6.13;3.40;;;384.50;2201.60;;;;;;5072216;28;20672;-78
2021/05/27 03:03:31;;;;;;;7.20;4.40;;;384.50;2201.60;;;;;;5081710;28;20846;-78
2021/05/27 03:06:00;;;;;;;6.57;3.92;;;384.50;2150.40;;;;;;5081599;28;20079;-78
2021/05/27 03:08:27;;;;;;;6.97;4.72;;;384.40;2176.00;;;;;;5084786;28;20057;-80
2021/05/27 03:10:53;;;;;;;8.93;5.40;;;384.50;2201.60;;;;;;5085531;28;20060;-82
2021/05/27 03:13:19;;;;;;;7.95;5.13;;;384.40;2227.20;;;;;;5084038;28;20740;-84
2021/05/27 03:15:45;;;;;;;6.90;5.00;;;384.40;2252.80;;;;;;5094158;28;20101;-83
2021/05/27 03:18:11;;;;;;;8.40;4.80;;;384.40;2252.80;;;;;;5085407;28;20817;-82
2021/05/27 03:20:37;;;;;;;9.25;5.63;;;384.40;2252.80;;;;;;5076113;28;20032;-79
2021/05/27 03:23:06;;;;;;;7.18;5.07;;;384.40;2227.20;;;;;;5084103;28;20478;-80
2021/05/27 03:25:33;;;;;;;8.05;4.40;;;384.40;2227.20;;;;;;5073731;28;20024;-81
2021/05/27 03:27:59;;;;;;;7.10;4.50;;;384.50;2227.20;;;;;;5069440;28;20028;-79
2021/05/27 03:30:25;;;;;;;6.88;4.32;;;384.60;2227.20;;;;;;5073358;28;20039;-80
2021/05/27 03:32:51;;;;;;;6.53;4.20;;;384.60;2227.20;;;;;;5084408;28;20391;-81
2021/05/27 03:35:18;;;;;;;13.00;4.65;;;384.70;2227.20;;;;;;5084646;28;20021;-81
2021/05/27 03:37:44;;;;;;;7.28;4.70;;;384.70;2227.20;;;;;;5083568;28;20028;-83
2021/05/27 03:42:37;;;;;;;6.57;4.47;;;384.80;2201.60;;;;;;5067873;28;20111;-80
2021/05/27 03:45:05;;;;;;;10.57;4.95;;;384.90;2201.60;;;;;;5076880;28;20024;-82
2021/05/27 03:47:31;;;;;;;7.30;3.55;;;409.60;2201.60;;;;;;5071787;28;20066;-81
2021/05/27 03:49:57;;;;;;;7.57;4.00;;;409.80;2176.00;;;;;;5078660;28;20048;-83
2021/05/27 03:52:22;;;;;;;11.40;4.05;;;409.80;2150.40;;;;;;5083987;28;20028;-82
2021/05/27 03:54:48;;;;;;;5.63;3.85;;;409.80;2150.40;;;;;;5074953;28;20034;-83
2021/05/27 03:57:14;;;;;;;5.88;3.97;;;409.90;2176.00;;;;;;5081181;28;20540;-80
2021/05/27 04:02:24;;;;;;;9.27;4.05;;;410.10;2150.40;;;;;;5079661;28;20039;-80
2021/05/27 04:07:33;;;;;;;5.93;3.80;;;410.40;2099.20;;;;;;5077294;28;20035;-81
2021/05/27 04:09:59;;;;;;;6.75;4.18;;;410.50;2073.60;;;;;;5079774;28;20439;-82
2021/05/27 04:12:46;;;;;;;6.20;3.83;;;435.20;2073.60;;;;;;5079250;28;20485;-82
2021/05/27 04:15:26;;;;;;;6.10;3.83;;;435.40;2048.00;;;;;;5083989;28;20023;-79
2021/05/27 04:18:01;;;;;;;10.40;4.78;;;435.70;2022.40;;;;;;5076889;28;20418;-78
2021/05/27 04:20:31;;;;;;;4.18;3.22;;;435.80;2022.40;;;;;;5085433;28;20031;-78
2021/05/27 04:22:57;;;;;;;6.72;4.22;;;436.00;1996.80;;;;;;5076517;28;20117;-79
2021/05/27 04:25:24;;;;;;;7.35;4.05;;;460.80;2022.40;;;;;;5080724;28;20058;-79
2021/05/27 04:27:51;;;;;;;5.40;3.72;;;460.90;1996.80;;;;;;5070520;28;20024;-79
2021/05/27 04:30:19;;;;;;;5.57;3.33;;;461.00;1996.80;;;;;;5067930;28;20036;-78
2021/05/27 04:35:37;;;;;;;8.73;3.97;;;461.00;1996.80;;;;;;5071322;28;20031;-79
2021/05/27 04:38:14;;;;;;;5.18;3.42;;;461.20;1996.80;;;;;;5082036;28;20040;-79
2021/05/27 04:40:45;;;;;;;6.10;3.88;;;461.30;1971.20;;;;;;5073217;28;20046;-79
2021/05/27 04:43:12;;;;;;;5.43;3.55;;;461.30;1945.60;;;;;;5072471;28;20032;-79
2021/05/27 04:45:38;;;;;;;5.43;3.33;;;461.30;1945.60;;;;;;5070892;28;20029;-79
2021/05/27 04:48:05;;;;;;;8.48;4.32;;;461.30;1945.60;;;;;;5069573;28;20020;-79
2021/05/27 04:50:32;;;;;;;7.10;4.22;;;461.30;1945.60;;;;;;5070635;28;20438;-79
2021/05/27 04:52:58;;;;;;;6.30;3.95;;;461.30;1945.60;;;;;;5069854;28;20020;-79
2021/05/27 04:55:24;;;;;;;7.47;4.20;;;461.40;1945.60;;;;;;5069809;28;20086;-81
2021/05/27 04:57:50;;;;;;;5.10;3.15;;;461.40;1945.60;;;;;;5071083;28;20430;-79
2021/05/27 05:00:26;;;;;;;6.43;3.97;;;461.40;1945.60;;;;;;5070558;28;20387;-79
2021/05/27 05:02:53;;;;;;;6.03;3.65;;;461.40;1971.20;;;;;;5070126;28;20736;-78
2021/05/27 05:05:20;;;;;;;8.07;3.72;;;461.50;1971.20;;;;;;5069591;28;20080;-78
2021/05/27 05:07:48;;;;;;;7.68;4.38;;;486.40;1945.60;;;;;;5070232;28;20024;-78
2021/05/27 05:10:14;;;;;;;6.18;4.13;;;486.60;1945.60;;;;;;5069348;28;20111;-78
2021/05/27 05:12:46;;;;;;;7.93;3.88;;;486.80;1920.00;;;;;;5080833;28;20020;-79
2021/05/27 05:15:19;;;;;;;4.13;2.92;;;487.10;1868.80;;;;;;5077222;28;20422;-79
2021/05/27 05:18:12;;;;;;;7.95;3.35;;;487.30;1843.20;;;;;;5070250;28;20056;-78
2021/05/27 05:20:41;;;;;;;5.28;3.25;;;512.00;1817.60;;;;;;5071376;28;20032;-79
2021/05/27 05:23:08;;;;;;;5.63;3.10;;;512.20;1817.60;;;;;;5069118;28;20501;-79
2021/05/27 05:25:35;;;;;;;5.13;3.55;;;512.30;1766.40;;;;;;5069724;28;20031;-79
2021/05/27 05:28:02;;;;;;;4.78;2.97;;;512.50;1766.40;;;;;;5070761;28;20558;-79
2021/05/27 05:30:29;;;;;;;5.25;2.85;;;512.70;1740.80;;;;;;5069562;28;20133;-78
2021/05/27 05:32:56;;;;;;;5.05;3.30;;;537.70;1740.80;;;;;;5069898;28;20060;-80
2021/05/27 05:35:22;;;;;;;5.25;3.35;;;538.00;1715.20;;;;;;5068851;28;20059;-79
2021/05/27 05:37:49;;;;;;;5.80;2.78;;;538.10;1715.20;;;;;;5069390;28;20082;-79
2021/05/27 05:40:18;;;;;;;3.95;3.10;;;538.30;1715.20;;;;;;5070867;28;20020;-79
2021/05/27 05:42:45;;;;;;;6.22;3.45;;;538.00;1740.80;;;;;;5077463;28;20031;-79
2021/05/27 05:45:14;;;;;;;5.35;3.40;;;538.40;1715.20;;;;;;5072626;28;20073;-79
2021/05/27 05:47:40;;;;;;;6.43;3.15;;;538.50;1689.60;;;;;;5068637;28;20021;-79
2021/05/27 05:50:08;;;;;;;4.18;2.55;;;563.30;1689.60;;;;;;5074185;28;20033;-79
2021/05/27 05:52:34;;;;;;;11.40;2.92;;;563.50;1664.00;;;;;;5072742;28;20024;-79
2021/05/27 05:55:00;;;;;;;10.95;3.15;;;563.90;1689.60;;;;;;5079686;28;20028;-79
2021/05/27 05:57:26;;;;;;;5.15;2.75;;;589.00;1638.40;;;;;;5079222;28;20021;-79
2021/05/27 05:59:52;;;;;;;3.80;2.50;;;589.20;1587.20;;;;;;5082963;28;20035;-79
2021/05/27 06:02:18;;;;;;;6.18;2.63;;;589.50;1587.20;;;;;;5085242;28;20106;-79
2021/05/27 06:04:43;;;;;;;4.65;2.65;;;589.40;1561.60;;;;;;5085007;28;20042;-79
2021/05/27 06:07:09;;;;;;;6.55;3.67;;;589.70;1536.00;;;;;;5083188;28;20036;-79
2021/05/27 06:09:35;;;;;;;5.25;2.42;;;589.70;1561.60;;;;;;5084314;28;20047;-79
2021/05/27 06:12:01;;;;;;;4.05;2.45;;;614.40;1561.60;;;;;;5076046;28;20108;-79
2021/05/27 06:14:27;;;;;;;5.32;2.72;;;614.60;1510.40;;;;;;5085248;28;20025;-79
2021/05/27 06:16:53;;;;;;;7.10;2.28;;;614.40;1561.60;;;;;;5072754;28;20479;-79
2021/05/27 06:19:19;;;;;;;6.57;2.33;;;614.80;1484.80;;;;;;5084261;28;20103;-80
2021/05/27 06:21:44;;;;;;;4.45;2.70;;;615.00;1433.60;;;;;;5075421;28;20032;-79
2021/05/27 06:24:10;;;;;;;5.22;2.55;;;615.20;1459.20;;;;;;5072717;28;20081;-79
2021/05/27 06:26:37;;;;;;;4.40;2.42;;;640.00;1433.60;;;;;;5084931;28;20028;-79
2021/05/27 06:29:03;;;;;;;4.07;2.25;;;640.20;1408.00;;;;;;5077746;28;20322;-79
2021/05/27 06:31:29;;;;;;;4.45;1.95;;;640.20;1382.40;;;;;;5082725;28;20017;-79
2021/05/27 06:33:55;;;;;;;5.45;2.25;;;640.40;1356.80;;;;;;5063414;28;20021;-79
2021/05/27 06:36:21;;;;;;;3.30;2.15;;;640.50;1356.80;;;;;;5072781;28;20025;-79
2021/05/27 06:38:47;;;;;;;4.57;2.08;;;640.70;1331.20;;;;;;5072615;28;20660;-79
2021/05/27 06:41:15;;;;;;;5.80;1.88;;;640.60;1305.60;;;;;;5069629;28;20040;-79
2021/05/27 06:43:40;;;;;;;3.42;2.67;;;640.90;1280.00;;;;;;5078622;28;20032;-79
2021/05/27 06:46:06;;;;;;;5.97;2.42;;;665.60;1331.20;;;;;;5073582;28;20035;-79
2021/05/27 06:48:32;;;;;;;4.72;2.20;;;666.10;1305.60;;;;;;5075013;28;20017;-79
2021/05/27 06:50:58;;;;;;;4.10;2.80;;;666.30;1305.60;;;;;;5085641;28;20021;-79
2021/05/27 06:53:23;;;;;;;5.18;2.42;;;666.40;1305.60;;;;;;5067021;28;20021;-80
2021/05/27 06:55:49;;;;;;;3.10;1.70;;;666.30;1152.00;;;;;;5085522;28;20028;-79
2021/05/27 06:58:17;;;;;;;2.70;1.80;;;666.30;1152.00;;;;;;5084580;28;20058;-79
2021/05/27 07:00:43;;;;;;;3.78;2.15;;;666.30;1203.20;;;;;;5081580;28;20460;-79
2021/05/27 07:03:09;;;;;;;3.45;2.47;;;666.50;1203.20;;;;;;5078884;28;20052;-79
2021/05/27 07:05:36;;;;;;;6.05;2.20;;;666.10;1177.60;;;;;;5076959;28;20135;-79
2021/05/27 07:08:03;;;;;;;4.03;2.10;;;666.20;1152.00;;;;;;5074956;28;20479;-79
2021/05/27 07:10:30;;;;;;;2.72;1.60;;;666.30;1177.60;;;;;;5075721;28;20111;-79
2021/05/27 07:12:58;;;;;;;4.05;1.90;;;666.20;1152.00;;;;;;5080663;28;20532;-79
2021/05/27 07:15:26;;;;;;;5.00;2.28;;;666.30;1126.40;;;;;;5072355;28;20426;-79
2021/05/27 07:17:53;;;;;;;4.30;1.73;;;666.30;1152.00;;;;;;5079431;28;20066;-79
2021/05/27 07:20:21;;;;;;;2.92;1.80;;;666.50;1126.40;;;;;;5086775;28;20028;-79
2021/05/27 07:22:48;;;;;;;2.28;1.50;;;666.30;1152.00;;;;;;5077824;28;20021;-79
2021/05/27 07:25:14;;;;;;;7.15;2.28;;;666.30;1177.60;;;;;;5073423;28;20608;-79
2021/05/27 07:27:41;;;;;;;10.07;2.80;;;666.30;1203.20;;;;;;5075433;28;20475;-79
2021/05/27 07:30:08;;;;;;;4.28;1.85;;;691.20;1203.20;;;;;;5068961;28;20032;-79
2021/05/27 07:32:36;;;;;;;5.35;2.63;;;666.30;1203.20;;;;;;5066291;28;20031;-79
2021/05/27 07:35:02;;;;;;;2.83;1.60;;;666.30;1152.00;;;;;;5074017;28;20028;-79
2021/05/27 07:37:28;;;;;;;4.78;1.60;;;691.50;1126.40;;;;;;5072470;28;20032;-79
2021/05/27 07:39:53;;;;;;;3.35;1.73;;;691.40;1075.20;;;;;;5073708;28;20048;-79
2021/05/27 07:42:19;;;;;;;4.72;1.38;;;691.20;1075.20;;;;;;5072696;28;20042;-79
2021/05/27 07:44:45;;;;;;;3.60;1.85;;;691.20;1075.20;;;;;;5074931;28;20543;-79
2021/05/27 07:47:10;;;;;;;4.53;2.08;;;691.40;1049.60;;;;;;5070853;28;20047;-79
2021/05/27 07:49:36;;;;;;;2.92;1.55;;;691.40;1049.60;;;;;;5070584;28;20383;-79
2021/05/27 07:52:02;;;;;;;4.55;1.33;;;691.60;1049.60;;;;;;5072379;28;20028;-79
2021/05/27 07:54:28;;;;;;;1.65;1.15;;;691.50;1049.60;;;;;;5070760;28;20120;-79
2021/05/27 07:56:54;;;;;;;4.47;1.50;;;691.60;998.40;;;;;;5072333;28;20527;-79
2021/05/27 07:59:20;;;;;;;5.88;1.83;;;691.70;998.40;;;;;;5071503;28;20024;-79
2021/05/27 08:01:46;;;;;;;3.95;2.13;;;691.80;1024.00;;;;;;5070618;28;20111;-79
2021/05/27 08:04:13;;;;;;;3.60;1.88;;;716.80;1024.00;;;;;;5071376;28;20055;-79
2021/05/27 08:06:40;;;;;;;2.55;1.20;;;692.00;1024.00;;;;;;5070565;28;20040;-78
2021/05/27 08:09:07;;;;;;;4.20;1.70;;;716.90;1024.00;;;;;;5071122;28;20032;-79
2021/05/27 08:11:34;;;;;;;3.85;1.90;;;717.20;998.40;;;;;;5071943;28;20527;-79
2021/05/27 08:14:00;;;;;;;6.22;2.08;;;717.00;998.40;;;;;;5071278;28;20055;-79
2021/05/27 08:16:26;;;;;;;2.50;1.40;;;717.30;972.80;;;;;;5056832;28;20016;-79
2021/05/27 08:18:52;;;;;;;2.40;1.30;;;717.40;998.40;;;;;;5071840;28;20036;-79
2021/05/27 08:21:18;;;;;;;4.05;1.55;;;717.40;998.40;;;;;;5070184;28;20032;-79
2021/05/27 08:23:44;;;;;;;4.15;1.20;;;717.50;998.40;;;;;;5070433;28;20036;-78
2021/05/27 08:26:11;;;;;;;4.88;2.58;;;717.70;947.20;;;;;;5070163;28;20036;-79
2021/05/27 08:28:36;;;;;;;8.60;2.50;;;717.40;947.20;;;;;;5070355;28;20060;-79
2021/05/27 08:31:03;;;;;;;6.05;2.28;;;717.50;947.20;;;;;;5070182;28;20057;-79
2021/05/27 08:33:30;;;;;;;2.60;1.40;;;717.70;947.20;;;;;;5070138;28;20119;-78
2021/05/27 08:35:55;;;;;;;2.53;1.40;;;717.60;947.20;;;;;;5070758;28;20487;-79
2021/05/27 08:38:21;;;;;;;3.70;1.70;;;742.70;947.20;;;;;;5069598;28;20036;-79
2021/05/27 08:40:47;;;;;;;4.45;1.73;;;742.90;896.00;;;;;;5070347;28;20029;-79
2021/05/27 08:43:14;;;;;;;4.93;1.63;;;743.10;896.00;;;;;;5070918;28;20710;-79
2021/05/27 08:45:41;;;;;;;3.35;2.10;;;768.10;870.40;;;;;;5071994;28;20043;-79
2021/05/27 08:48:14;;;;;;;4.63;1.90;;;743.30;921.60;;;;;;5069887;28;20024;-79
2021/05/27 08:50:43;;;;;;;2.45;1.40;;;743.20;896.00;;;;;;5067654;28;20083;-79
2021/05/27 08:53:09;;;;;;;1.83;1.40;;;768.20;870.40;;;;;;5070454;28;20450;-80
2021/05/27 08:55:36;;;;;;;1.58;1.20;;;768.70;844.80;;;;;;5072289;28;20040;-79
2021/05/27 08:58:02;;;;;;;4.60;1.70;;;793.60;870.40;;;;;;5068158;28;20063;-79
2021/05/27 09:00:28;;;;;;;4.70;1.55;;;793.60;896.00;;;;;;5077844;28;20076;-79
2021/05/27 09:02:56;;;;;;;3.15;1.63;;;768.30;896.00;;;;;;5090921;28;20435;-79
2021/05/27 09:05:22;;;;;;;5.82;2.15;;;768.30;870.40;;;;;;5077144;28;20055;-80
2021/05/27 09:07:49;;;;;;;2.53;1.30;;;768.30;870.40;;;;;;5077549;28;20032;-79
2021/05/27 09:10:15;;;;;;;2.90;1.90;;;768.30;844.80;;;;;;5077325;28;20428;-79
2021/05/27 09:12:40;;;;;;;2.47;1.75;;;768.40;844.80;;;;;;5080733;28;20016;-79
2021/05/27 09:15:23;;;;;;;2.90;1.55;;;768.10;844.80;;;;;;5081042;28;20487;-79
2021/05/27 09:17:53;;;;;;;4.63;2.25;;;768.50;819.20;;;;;;5089063;28;20036;-79
2021/05/27 09:20:25;;;;;;;5.55;2.10;;;768.70;844.80;;;;;;5078542;28;20024;-79
2021/05/27 09:23:12;;;;;;;5.13;1.80;;;768.80;844.80;;;;;;5076823;28;20029;-79
2021/05/27 09:25:39;;;;;;;3.05;1.85;;;793.60;844.80;;;;;;5083374;28;20055;-79
2021/05/27 09:28:07;;;;;;;4.60;2.45;;;793.80;844.80;;;;;;5075167;28;20029;-79
2021/05/27 09:30:51;;;;;;;6.05;2.20;;;794.40;819.20;;;;;;5085440;28;20031;-82
2021/05/27 09:33:18;;;;;;;4.40;2.65;;;793.70;844.80;;;;;;5081683;28;20027;-79
2021/05/27 09:35:44;;;;;;;3.88;2.40;;;793.80;819.20;;;;;;5071830;28;20024;-80
2021/05/27 09:38:11;;;;;;;3.13;1.33;;;793.60;819.20;;;;;;5085651;28;20033;-79
2021/05/27 09:40:46;;;;;;;3.20;1.60;;;793.70;844.80;;;;;;5069724;28;20399;-79
2021/05/27 09:43:24;;;;;;;4.75;2.35;;;794.10;819.20;;;;;;5071341;28;20033;-79
2021/05/27 09:46:06;;;;;;;2.63;1.50;;;793.90;844.80;;;;;;5080804;28;20032;-80
2021/05/27 09:48:33;;;;;;;5.53;2.05;;;793.80;844.80;;;;;;5074137;28;20082;-79
2021/05/27 09:51:01;;;;;;;3.00;1.80;;;794.30;844.80;;;;;;5065927;28;20140;-79
2021/05/27 09:53:29;;;;;;;2.65;1.20;;;794.20;844.80;;;;;;5080509;28;20490;-78
2021/05/27 09:55:56;;;;;;;3.45;1.92;;;794.50;819.20;;;;;;5078032;28;20024;-79
2021/05/27 09:58:23;;;;;;;2.20;1.55;;;819.50;819.20;;;;;;5075173;28;20036;-79
2021/05/27 10:00:51;;;;;;;5.88;1.60;;;794.50;819.20;;;;;;5085757;28;20033;-80
2021/05/27 10:03:29;;;;;;;3.33;2.05;;;794.10;819.20;;;;;;5069113;28;20119;-79
2021/05/27 10:05:55;;;;;;;2.22;1.42;;;819.40;844.80;;;;;;5095588;28;20048;-79
2021/05/27 10:08:21;;;;;;;3.80;1.83;;;819.30;819.20;;;;;;5081313;28;20035;-79
2021/05/27 10:10:48;;;;;;;3.63;1.75;;;819.30;844.80;;;;;;5079203;28;20017;-79
2021/05/27 10:13:16;;;;;;;5.00;1.70;;;793.80;844.80;;;;;;5067109;28;20061;-79
2021/05/27 10:15:43;;;;;;;2.28;1.70;;;794.10;844.80;;;;;;5072815;28;20050;-79
2021/05/27 10:18:17;;;;;;;2.15;1.63;;;794.20;819.20;;;;;;5075670;28;20028;-79
2021/05/27 10:20:43;;;;;;;1.73;1.50;;;794.20;819.20;;;;;;5076589;28;20077;-79
2021/05/27 10:23:09;;;;;;;2.00;1.42;;;793.90;819.20;;;;;;5079015;28;20487;-79
2021/05/27 10:25:35;;;;;;;2.08;1.20;;;794.10;844.80;;;;;;5075971;28;20089;-80
2021/05/27 10:28:04;;;;;;;6.18;4.82;;;819.30;819.20;;;;;;5079581;28;20154;-79
2021/05/27 10:30:37;;;;;;;4.60;2.75;;;819.20;844.80;;;;;;5068610;28;20024;-79
2021/05/27 10:33:05;;;;;;;3.92;2.80;;;794.50;844.80;;;;;;5056177;28;20021;-79
2021/05/27 10:35:44;;;;;;;3.40;1.80;;;819.80;819.20;;;;;;5072979;28;20536;-79
2021/05/27 10:38:13;;;;;;;2.55;1.30;;;844.80;819.20;;;;;;5061281;28;20110;-79
2021/05/27 10:40:40;;;;;;;4.47;1.80;;;819.90;793.60;;;;;;5067174;28;20029;-79
2021/05/27 10:43:10;;;;;;;4.20;2.50;;;819.70;819.20;;;;;;5080595;28;20055;-79
2021/05/27 10:46:02;;;;;;;5.75;3.00;;;819.20;819.20;;;;;;5069078;28;20396;-79
2021/05/27 10:48:31;;;;;;;5.03;2.20;;;819.60;793.60;;;;;;5072782;28;20025;-79
2021/05/27 10:51:05;;;;;;;3.38;2.35;;;819.70;793.60;;;;;;5070704;28;20024;-79
2021/05/27 10:56:06;;;;;;;3.95;1.75;;;819.40;793.60;;;;;;5073537;28;20031;-79
2021/05/27 11:01:17;;;;;;;2.47;1.70;;;819.20;819.20;;;;;;5065523;28;20553;-79
2021/05/27 11:03:53;;;;;;;3.88;1.80;;;819.20;793.60;;;;;;5082099;28;20029;-79
2021/05/27 11:06:38;;;;;;;2.40;1.65;;;819.40;793.60;;;;;;5070925;28;20506;-79
2021/05/27 11:09:16;;;;;;;4.85;2.25;;;794.20;819.20;;;;;;5076739;28;20111;-79
2021/05/27 11:11:45;;;;;;;2.92;1.70;;;793.80;819.20;;;;;;5078402;28;20050;-79
2021/05/27 11:14:26;;;;;;;2.35;1.48;;;794.30;819.20;;;;;;5088319;28;20021;-79
2021/05/27 11:25:10;;;;;;;3.55;2.25;;;768.60;819.20;;;;;;5081228;28;20020;-79
2021/05/27 11:27:55;;;;;;;2.42;1.42;;;793.60;819.20;;;;;;5060595;28;20029;-79
2021/05/27 11:30:40;;;;;;;3.50;1.50;;;793.70;844.80;;;;;;5066688;28;20039;-78
2021/05/27 11:33:15;;;;;;;3.00;1.58;;;768.80;819.20;;;;;;5077137;28;20468;-79
2021/05/27 11:35:53;;;;;;;2.53;1.33;;;794.10;819.20;;;;;;5069586;28;20119;-79
2021/05/27 11:38:45;;;;;;;3.75;1.83;;;794.40;793.60;;;;;;5079850;28;20458;-78
2021/05/27 11:41:18;;;;;;;3.78;1.65;;;794.50;793.60;;;;;;5078391;28;20038;-79
2021/05/27 11:43:47;;;;;;;2.60;1.90;;;794.30;793.60;;;;;;5074046;28;20035;-79
2021/05/27 11:46:19;;;;;;;3.95;2.00;;;794.40;793.60;;;;;;5082510;28;20090;-79
2021/05/27 11:51:22;;;;;;;3.08;1.70;;;793.70;819.20;;;;;;5072965;28;20146;-79
2021/05/27 11:53:58;;;;;;;3.55;1.33;;;768.70;819.20;;;;;;5070497;28;20032;-79
2021/05/27 11:56:39;;;;;;;4.88;1.98;;;768.40;793.60;;;;;;5072344;28;20008;-79
2021/05/27 11:59:10;;;;;;;5.05;2.00;;;768.50;819.20;;;;;;5071463;28;20476;-79
2021/05/27 12:01:37;;;;;;;4.40;1.58;;;768.10;819.20;;;;;;5070998;28;20040;-79
2021/05/27 12:04:10;;;;;;;6.10;1.85;;;742.80;844.80;;;;;;5071339;28;20020;-79
2021/05/27 12:07:04;;;;;;;6.13;1.85;;;742.70;870.40;;;;;;5072535;28;20087;-79
2021/05/27 12:09:32;;;;;;;3.05;1.52;;;742.80;870.40;;;;;;5070678;28;20040;-79
2021/05/27 12:12:14;;;;;;;2.42;1.20;;;743.00;844.80;;;;;;5071307;28;20783;-79
2021/05/27 12:14:44;;;;;;;4.82;2.20;;;742.40;896.00;;;;;;5070908;28;20048;-79
2021/05/27 12:17:17;;;;;;;5.10;1.63;;;717.60;870.40;;;;;;5070705;28;20021;-79
2021/05/27 12:19:50;;;;;;;3.95;1.90;;;717.60;896.00;;;;;;5072291;28;20040;-79
2021/05/27 12:22:16;;;;;;;4.38;1.58;;;717.60;870.40;;;;;;5069901;28;20035;-79
2021/05/27 12:24:42;;;;;;;3.53;1.40;;;717.60;870.40;;;;;;5071644;28;20032;-79
2021/05/27 12:27:08;;;;;;;2.65;1.40;;;717.30;896.00;;;;;;5072127;28;20032;-79
2021/05/27 12:29:34;;;;;;;3.05;1.60;;;717.30;896.00;;;;;;5070375;28;20044;-78
2021/05/27 12:32:02;;;;;;;4.80;2.00;;;717.00;921.60;;;;;;5072047;28;20079;-80
2021/05/27 12:34:29;;;;;;;5.03;1.88;;;717.00;921.60;;;;;;5069756;28;20016;-79
2021/05/27 12:36:58;;;;;;;5.22;2.08;;;717.20;896.00;;;;;;5070923;28;20115;-79
2021/05/27 12:39:38;;;;;;;4.00;2.10;;;717.50;870.40;;;;;;5070590;28;20775;-79
2021/05/27 12:42:09;;;;;;;1.90;1.40;;;742.60;896.00;;;;;;5058682;28;20036;-79
2021/05/27 12:44:47;;;;;;;8.95;2.75;;;742.40;896.00;;;;;;5070614;28;20025;-79
2021/05/27 12:47:19;;;;;;;3.80;1.10;;;742.70;921.60;;;;;;5070172;28;20029;-79
2021/05/27 12:49:46;;;;;;;2.65;1.55;;;742.80;896.00;;;;;;5070591;28;20441;-79
2021/05/27 12:52:32;;;;;;;2.72;1.17;;;742.80;870.40;;;;;;5071311;28;20030;-79